sensor_id;sensor_type;location;lat;lon;timestamp;pressure;altitude;pressure_sealevel;temperature;humidity
71917;BME280;59793;46.506;6.674;2023-04-09T00:02:08;97475.53;;;9.72;59.62
71917;BME280;59793;46.506;6.674;2023-04-09T00:04:34;97443.13;;;9.59;59.35
71917;BME280;59793;46.506;6.674;2023-04-09T00:06:59;97510.38;;;10.02;59.42
71917;BME280;59793;46.506;6.674;2023-04-09T00:09:25;97493.69;;;9.98;59.11
71917;BME280;59793;46.506;6.674;2023-04-09T00:11:50;97504.34;;;10.14;59.00
71917;BME280;59793;46.506;6.674;2023-04-09T00:14:16;97513.44;;;10.04;59.24
71917;BME280;59793;46.506;6.674;2023-04-09T00:16:41;97497.66;;;10.04;59.02
71917;BME280;59793;46.506;6.674;2023-04-09T00:19:06;97496.13;;;10.15;58.67
71917;BME280;59793;46.506;6.674;2023-04-09T00:21:32;97509.94;;;10.12;58.97
71917;BME280;59793;46.506;6.674;2023-04-09T00:23:57;97485.56;;;10.03;58.59
71917;BME280;59793;46.506;6.674;2023-04-09T00:26:23;97483.44;;;9.84;59.25
71917;BME280;59793;46.506;6.674;2023-04-09T00:28:48;97512.31;;;9.93;59.39
71917;BME280;59793;46.506;6.674;2023-04-09T00:31:13;97517.41;;;9.77;60.16
71917;BME280;59793;46.506;6.674;2023-04-09T00:33:39;97508.63;;;9.73;60.44
71917;BME280;59793;46.506;6.674;2023-04-09T00:36:04;97504.25;;;9.77;60.19
71917;BME280;59793;46.506;6.674;2023-04-09T00:38:30;97488.69;;;9.72;60.31
71917;BME280;59793;46.506;6.674;2023-04-09T00:40:55;97492.50;;;9.74;60.07
71917;BME280;59793;46.506;6.674;2023-04-09T00:43:21;97492.19;;;9.76;59.82
71917;BME280;59793;46.506;6.674;2023-04-09T00:45:46;97502.91;;;9.71;60.62
71917;BME280;59793;46.506;6.674;2023-04-09T00:48:12;97491.59;;;9.58;60.95
71917;BME280;59793;46.506;6.674;2023-04-09T00:50:38;97498.25;;;9.55;61.42
71917;BME280;59793;46.506;6.674;2023-04-09T00:53:04;97478.88;;;9.39;61.71
71917;BME280;59793;46.506;6.674;2023-04-09T00:55:31;97489.34;;;9.48;61.64
71917;BME280;59793;46.506;6.674;2023-04-09T00:57:57;97490.34;;;9.55;61.42
71917;BME280;59793;46.506;6.674;2023-04-09T01:00:22;97500.28;;;9.50;61.87
71917;BME280;59793;46.506;6.674;2023-04-09T01:02:48;97492.88;;;9.52;61.76
71917;BME280;59793;46.506;6.674;2023-04-09T01:05:15;97484.59;;;9.41;61.90
71917;BME280;59793;46.506;6.674;2023-04-09T01:07:53;97498.38;;;9.38;62.47
71917;BME280;59793;46.506;6.674;2023-04-09T01:10:41;97470.16;;;9.05;63.20
71917;BME280;59793;46.506;6.674;2023-04-09T01:13:34;97498.75;;;9.28;62.86
71917;BME280;59793;46.506;6.674;2023-04-09T01:16:04;97500.50;;;9.45;62.54
71917;BME280;59793;46.506;6.674;2023-04-09T01:18:58;97498.06;;;9.19;63.15
71917;BME280;59793;46.506;6.674;2023-04-09T01:21:31;97488.44;;;9.23;62.79
71917;BME280;59793;46.506;6.674;2023-04-09T01:27:03;97502.63;;;9.51;61.76
71917;BME280;59793;46.506;6.674;2023-04-09T01:29:31;97490.41;;;9.47;61.65
71917;BME280;59793;46.506;6.674;2023-04-09T01:31:58;97502.50;;;9.48;61.81
71917;BME280;59793;46.506;6.674;2023-04-09T01:34:26;97503.66;;;9.38;61.93
71917;BME280;59793;46.506;6.674;2023-04-09T01:36:56;97473.94;;;9.17;62.02
71917;BME280;59793;46.506;6.674;2023-04-09T01:39:22;97475.72;;;9.04;62.76
71917;BME280;59793;46.506;6.674;2023-04-09T01:41:49;97492.53;;;9.12;62.95
71917;BME280;59793;46.506;6.674;2023-04-09T01:44:14;97502.34;;;9.02;63.42
71917;BME280;59793;46.506;6.674;2023-04-09T01:46:41;97487.44;;;8.85;63.63
71917;BME280;59793;46.506;6.674;2023-04-09T01:49:08;97493.19;;;8.79;64.03
71917;BME280;59793;46.506;6.674;2023-04-09T01:51:34;97504.88;;;8.90;64.27
71917;BME280;59793;46.506;6.674;2023-04-09T01:53:59;97468.44;;;8.59;64.34
71917;BME280;59793;46.506;6.674;2023-04-09T01:56:25;97498.56;;;8.91;64.02
71917;BME280;59793;46.506;6.674;2023-04-09T01:58:51;97497.66;;;8.87;64.20
71917;BME280;59793;46.506;6.674;2023-04-09T02:01:34;97509.22;;;8.86;64.23
71917;BME280;59793;46.506;6.674;2023-04-09T02:04:02;97499.63;;;8.60;64.93
71917;BME280;59793;46.506;6.674;2023-04-09T02:06:49;97500.53;;;8.65;65.16
71917;BME280;59793;46.506;6.674;2023-04-09T02:09:19;97483.09;;;8.60;64.85
71917;BME280;59793;46.506;6.674;2023-04-09T02:11:46;97509.09;;;8.53;65.92
71917;BME280;59793;46.506;6.674;2023-04-09T02:14:13;97485.59;;;8.56;65.35
71917;BME280;59793;46.506;6.674;2023-04-09T02:16:40;97489.03;;;8.48;65.53
71917;BME280;59793;46.506;6.674;2023-04-09T02:19:06;97508.75;;;8.54;66.06
71917;BME280;59793;46.506;6.674;2023-04-09T02:21:31;97505.91;;;8.68;65.31
71917;BME280;59793;46.506;6.674;2023-04-09T02:23:57;97513.53;;;8.91;64.57
71917;BME280;59793;46.506;6.674;2023-04-09T02:26:23;97520.78;;;8.94;64.46
71917;BME280;59793;46.506;6.674;2023-04-09T02:28:49;97514.03;;;8.84;64.49
71917;BME280;59793;46.506;6.674;2023-04-09T02:31:14;97490.22;;;8.59;64.90
71917;BME280;59793;46.506;6.674;2023-04-09T02:33:40;97507.69;;;8.55;65.27
71917;BME280;59793;46.506;6.674;2023-04-09T02:36:05;97525.81;;;8.40;66.44
71917;BME280;59793;46.506;6.674;2023-04-09T02:38:31;97522.22;;;8.53;65.75
71917;BME280;59793;46.506;6.674;2023-04-09T02:40:57;97524.22;;;8.47;65.71
71917;BME280;59793;46.506;6.674;2023-04-09T02:43:22;97501.56;;;8.25;66.01
71917;BME280;59793;46.506;6.674;2023-04-09T02:45:47;97498.47;;;8.41;65.38
71917;BME280;59793;46.506;6.674;2023-04-09T02:48:13;97517.75;;;8.36;66.07
71917;BME280;59793;46.506;6.674;2023-04-09T02:50:38;97493.38;;;8.27;65.81
71917;BME280;59793;46.506;6.674;2023-04-09T02:53:03;97514.84;;;8.37;65.58
71917;BME280;59793;46.506;6.674;2023-04-09T02:55:29;97509.91;;;8.27;65.98
71917;BME280;59793;46.506;6.674;2023-04-09T02:57:54;97498.00;;;8.30;65.58
71917;BME280;59793;46.506;6.674;2023-04-09T03:00:20;97479.38;;;8.05;65.86
71917;BME280;59793;46.506;6.674;2023-04-09T03:02:45;97511.28;;;8.42;65.55
71917;BME280;59793;46.506;6.674;2023-04-09T03:05:10;97495.06;;;8.31;65.27
71917;BME280;59793;46.506;6.674;2023-04-09T03:07:36;97495.91;;;8.14;65.96
71917;BME280;59793;46.506;6.674;2023-04-09T03:10:01;97521.03;;;8.42;65.38
71917;BME280;59793;46.506;6.674;2023-04-09T03:12:27;97482.59;;;8.20;64.80
71917;BME280;59793;46.506;6.674;2023-04-09T03:14:52;97513.72;;;8.47;64.82
71917;BME280;59793;46.506;6.674;2023-04-09T03:17:17;97496.94;;;8.22;65.46
71917;BME280;59793;46.506;6.674;2023-04-09T03:19:43;97478.00;;;8.08;65.25
71917;BME280;59793;46.506;6.674;2023-04-09T03:22:08;97488.50;;;8.17;65.58
71917;BME280;59793;46.506;6.674;2023-04-09T03:24:33;97504.25;;;8.17;65.95
71917;BME280;59793;46.506;6.674;2023-04-09T03:26:59;97500.81;;;8.16;65.63
71917;BME280;59793;46.506;6.674;2023-04-09T03:29:25;97461.38;;;7.95;65.61
71917;BME280;59793;46.506;6.674;2023-04-09T03:31:50;97504.53;;;8.24;65.25
71917;BME280;59793;46.506;6.674;2023-04-09T03:34:16;97502.34;;;8.26;65.19
71917;BME280;59793;46.506;6.674;2023-04-09T03:36:41;97501.72;;;8.29;64.98
71917;BME280;59793;46.506;6.674;2023-04-09T03:39:06;97489.41;;;8.21;64.81
71917;BME280;59793;46.506;6.674;2023-04-09T03:41:32;97499.72;;;8.34;64.63
71917;BME280;59793;46.506;6.674;2023-04-09T03:43:57;97497.56;;;8.28;64.44
71917;BME280;59793;46.506;6.674;2023-04-09T03:46:22;97504.53;;;8.24;64.46
71917;BME280;59793;46.506;6.674;2023-04-09T03:48:49;97501.28;;;8.18;64.60
71917;BME280;59793;46.506;6.674;2023-04-09T03:51:15;97499.72;;;8.26;64.41
71917;BME280;59793;46.506;6.674;2023-04-09T03:53:41;97502.31;;;8.43;64.12
71917;BME280;59793;46.506;6.674;2023-04-09T03:56:08;97504.19;;;8.34;64.34
71917;BME280;59793;46.506;6.674;2023-04-09T03:58:33;97484.88;;;8.30;64.22
71917;BME280;59793;46.506;6.674;2023-04-09T04:00:59;97484.41;;;8.36;63.77
71917;BME280;59793;46.506;6.674;2023-04-09T04:03:24;97464.41;;;8.14;63.88
71917;BME280;59793;46.506;6.674;2023-04-09T04:05:50;97504.53;;;8.24;65.16
71917;BME280;59793;46.506;6.674;2023-04-09T04:08:15;97456.91;;;7.87;65.25
71917;BME280;59793;46.506;6.674;2023-04-09T04:10:41;97440.00;;;7.58;66.03
71917;BME280;59793;46.506;6.674;2023-04-09T04:13:06;97476.69;;;7.76;66.05
71917;BME280;59793;46.506;6.674;2023-04-09T04:15:40;97495.50;;;7.95;65.78
71917;BME280;59793;46.506;6.674;2023-04-09T04:18:06;97473.44;;;7.79;66.02
71917;BME280;59793;46.506;6.674;2023-04-09T04:20:32;97481.00;;;7.89;65.48
71917;BME280;59793;46.506;6.674;2023-04-09T04:22:58;97507.19;;;8.06;65.56
71917;BME280;59793;46.506;6.674;2023-04-09T04:25:24;97503.00;;;8.05;65.51
71917;BME280;59793;46.506;6.674;2023-04-09T04:27:49;97495.63;;;7.90;65.82
71917;BME280;59793;46.506;6.674;2023-04-09T04:30:14;97520.03;;;7.99;65.62
71917;BME280;59793;46.506;6.674;2023-04-09T04:32:40;97512.00;;;7.87;66.67
71917;BME280;59793;46.506;6.674;2023-04-09T04:35:06;97509.72;;;7.68;66.86
71917;BME280;59793;46.506;6.674;2023-04-09T04:37:31;97516.03;;;7.58;67.21
71917;BME280;59793;46.506;6.674;2023-04-09T04:39:57;97522.38;;;7.57;67.22
71917;BME280;59793;46.506;6.674;2023-04-09T04:42:22;97503.41;;;7.60;66.75
71917;BME280;59793;46.506;6.674;2023-04-09T04:44:47;97516.50;;;7.69;66.97
71917;BME280;59793;46.506;6.674;2023-04-09T04:47:13;97510.19;;;7.61;67.38
71917;BME280;59793;46.506;6.674;2023-04-09T04:49:38;97504.00;;;7.57;67.37
71917;BME280;59793;46.506;6.674;2023-04-09T04:52:05;97525.28;;;7.64;67.48
71917;BME280;59793;46.506;6.674;2023-04-09T04:54:30;97475.31;;;7.35;67.31
71917;BME280;59793;46.506;6.674;2023-04-09T04:56:55;97517.56;;;7.59;67.14
71917;BME280;59793;46.506;6.674;2023-04-09T04:59:21;97522.66;;;7.56;67.46
71917;BME280;59793;46.506;6.674;2023-04-09T05:01:46;97525.44;;;7.59;67.42
71917;BME280;59793;46.506;6.674;2023-04-09T05:04:12;97531.75;;;7.41;68.04
71917;BME280;59793;46.506;6.674;2023-04-09T05:06:37;97516.47;;;7.08;69.10
71917;BME280;59793;46.506;6.674;2023-04-09T05:09:02;97527.09;;;7.03;69.72
71917;BME280;59793;46.506;6.674;2023-04-09T05:11:28;97536.00;;;7.02;69.99
71917;BME280;59793;46.506;6.674;2023-04-09T05:13:53;97522.75;;;6.90;69.92
71917;BME280;59793;46.506;6.674;2023-04-09T05:16:19;97549.75;;;7.08;70.21
71917;BME280;59793;46.506;6.674;2023-04-09T05:18:45;97525.53;;;7.02;69.46
71917;BME280;59793;46.506;6.674;2023-04-09T05:21:11;97541.75;;;7.30;68.84
71917;BME280;59793;46.506;6.674;2023-04-09T05:23:36;97533.63;;;7.32;68.54
71917;BME280;59793;46.506;6.674;2023-04-09T05:26:02;97555.06;;;7.42;68.47
71917;BME280;59793;46.506;6.674;2023-04-09T05:28:27;97528.38;;;7.40;67.81
71917;BME280;59793;46.506;6.674;2023-04-09T05:30:52;97557.53;;;7.56;67.76
71917;BME280;59793;46.506;6.674;2023-04-09T05:33:18;97543.16;;;7.36;68.42
71917;BME280;59793;46.506;6.674;2023-04-09T05:35:43;97538.88;;;7.49;67.82
71917;BME280;59793;46.506;6.674;2023-04-09T05:38:08;97554.28;;;7.85;66.94
71917;BME280;59793;46.506;6.674;2023-04-09T05:40:34;97548.09;;;7.90;66.59
71917;BME280;59793;46.506;6.674;2023-04-09T05:43:00;97569.84;;;7.90;67.03
71917;BME280;59793;46.506;6.674;2023-04-09T05:45:25;97561.41;;;7.85;67.08
71917;BME280;59793;46.506;6.674;2023-04-09T05:47:53;97570.47;;;7.96;66.75
71917;BME280;59793;46.506;6.674;2023-04-09T05:50:18;97564.31;;;7.83;67.01
71917;BME280;59793;46.506;6.674;2023-04-09T05:52:44;97567.09;;;7.87;67.16
71917;BME280;59793;46.506;6.674;2023-04-09T05:55:10;97571.28;;;7.88;67.25
71917;BME280;59793;46.506;6.674;2023-04-09T05:57:35;97553.69;;;7.71;67.34
71917;BME280;59793;46.506;6.674;2023-04-09T06:00:01;97583.28;;;8.06;66.75
71917;BME280;59793;46.506;6.674;2023-04-09T06:02:26;97568.59;;;8.05;66.73
71917;BME280;59793;46.506;6.674;2023-04-09T06:04:52;97587.28;;;8.04;66.54
71917;BME280;59793;46.506;6.674;2023-04-09T06:07:17;97589.75;;;8.09;66.94
71917;BME280;59793;46.506;6.674;2023-04-09T06:09:43;97586.53;;;8.03;66.88
71917;BME280;59793;46.506;6.674;2023-04-09T06:12:09;97567.84;;;7.96;66.93
71917;BME280;59793;46.506;6.674;2023-04-09T06:14:34;97574.31;;;8.25;66.20
71917;BME280;59793;46.506;6.674;2023-04-09T06:17:00;97593.13;;;8.44;65.30
71917;BME280;59793;46.506;6.674;2023-04-09T06:19:25;97584.41;;;8.70;64.80
71917;BME280;59793;46.506;6.674;2023-04-09T06:21:51;97565.22;;;8.78;64.15
71917;BME280;59793;46.506;6.674;2023-04-09T06:24:16;97591.34;;;9.13;63.52
71917;BME280;59793;46.506;6.674;2023-04-09T06:26:41;97601.84;;;9.13;62.98
71917;BME280;59793;46.506;6.674;2023-04-09T06:29:07;97609.63;;;9.00;63.56
71917;BME280;59793;46.506;6.674;2023-04-09T06:31:32;97584.34;;;8.87;64.37
71917;BME280;59793;46.506;6.674;2023-04-09T06:33:58;97594.47;;;8.97;63.85
71917;BME280;59793;46.506;6.674;2023-04-09T06:36:23;97580.97;;;8.78;64.24
71917;BME280;59793;46.506;6.674;2023-04-09T06:38:49;97607.19;;;8.95;63.94
71917;BME280;59793;46.506;6.674;2023-04-09T06:41:15;97587.91;;;8.82;64.61
71917;BME280;59793;46.506;6.674;2023-04-09T06:43:40;97596.34;;;8.97;64.52
71917;BME280;59793;46.506;6.674;2023-04-09T06:46:06;97603.13;;;9.06;63.69
71917;BME280;59793;46.506;6.674;2023-04-09T06:48:31;97615.72;;;9.22;64.22
71917;BME280;59793;46.506;6.674;2023-04-09T06:50:56;97615.44;;;9.44;63.43
71917;BME280;59793;46.506;6.674;2023-04-09T06:53:22;97593.69;;;9.05;63.74
71917;BME280;59793;46.506;6.674;2023-04-09T06:55:47;97571.16;;;8.96;63.65
71917;BME280;59793;46.506;6.674;2023-04-09T06:58:12;97590.66;;;9.24;63.46
71917;BME280;59793;46.506;6.674;2023-04-09T07:00:38;97604.06;;;9.31;64.08
71917;BME280;59793;46.506;6.674;2023-04-09T07:03:03;97612.66;;;9.20;64.45
71917;BME280;59793;46.506;6.674;2023-04-09T07:05:29;97574.25;;;8.98;64.05
71917;BME280;59793;46.506;6.674;2023-04-09T07:07:55;97606.47;;;9.16;64.00
71917;BME280;59793;46.506;6.674;2023-04-09T07:10:21;97598.75;;;9.10;64.18
71917;BME280;59793;46.506;6.674;2023-04-09T07:12:46;97618.31;;;9.30;64.14
71917;BME280;59793;46.506;6.674;2023-04-09T07:15:12;97573.66;;;9.22;63.20
71917;BME280;59793;46.506;6.674;2023-04-09T07:17:37;97603.22;;;9.69;62.67
71917;BME280;59793;46.506;6.674;2023-04-09T07:20:03;97595.00;;;9.71;62.60
71917;BME280;59793;46.506;6.674;2023-04-09T07:22:29;97590.91;;;9.61;63.11
71917;BME280;59793;46.506;6.674;2023-04-09T07:24:55;97619.00;;;9.69;64.21
71917;BME280;59793;46.506;6.674;2023-04-09T07:29:46;97618.63;;;10.00;62.64
71917;BME280;59793;46.506;6.674;2023-04-09T07:32:11;97614.38;;;9.87;62.78
71917;BME280;59793;46.506;6.674;2023-04-09T07:34:37;97588.84;;;9.88;62.24
71917;BME280;59793;46.506;6.674;2023-04-09T07:37:02;97621.03;;;10.05;62.34
71917;BME280;59793;46.506;6.674;2023-04-09T07:39:27;97622.06;;;10.13;62.35
71917;BME280;59793;46.506;6.674;2023-04-09T07:41:53;97589.69;;;10.13;61.65
71917;BME280;59793;46.506;6.674;2023-04-09T07:44:18;97620.31;;;10.38;60.26
71917;BME280;59793;46.506;6.674;2023-04-09T07:46:44;97624.16;;;10.28;61.50
71917;BME280;59793;46.506;6.674;2023-04-09T07:49:09;97615.25;;;10.33;61.12
71917;BME280;59793;46.506;6.674;2023-04-09T07:51:35;97619.66;;;10.41;60.64
71917;BME280;59793;46.506;6.674;2023-04-09T07:54:00;97623.97;;;10.46;61.08
71917;BME280;59793;46.506;6.674;2023-04-09T07:56:25;97604.09;;;10.15;61.43
71917;BME280;59793;46.506;6.674;2023-04-09T07:58:51;97601.50;;;10.27;62.43
71917;BME280;59793;46.506;6.674;2023-04-09T08:01:16;97631.19;;;10.37;62.40
71917;BME280;59793;46.506;6.674;2023-04-09T08:03:42;97632.16;;;10.32;62.26
71917;BME280;59793;46.506;6.674;2023-04-09T08:06:07;97628.16;;;10.47;62.67
71917;BME280;59793;46.506;6.674;2023-04-09T08:08:33;97602.34;;;10.52;61.37
71917;BME280;59793;46.506;6.674;2023-04-09T08:10:59;97631.38;;;10.77;61.57
71917;BME280;59793;46.506;6.674;2023-04-09T08:13:24;97617.78;;;10.87;61.32
71917;BME280;59793;46.506;6.674;2023-04-09T08:15:50;97615.84;;;10.96;60.61
71917;BME280;59793;46.506;6.674;2023-04-09T08:18:15;97638.28;;;10.69;61.81
71917;BME280;59793;46.506;6.674;2023-04-09T08:20:40;97636.56;;;10.40;63.64
71917;BME280;59793;46.506;6.674;2023-04-09T08:23:09;97633.31;;;10.22;63.69
71917;BME280;59793;46.506;6.674;2023-04-09T08:25:35;97626.81;;;10.20;63.49
71917;BME280;59793;46.506;6.674;2023-04-09T08:28:00;97620.09;;;9.89;64.96
71917;BME280;59793;46.506;6.674;2023-04-09T08:30:25;97649.63;;;10.16;64.73
71917;BME280;59793;46.506;6.674;2023-04-09T08:32:51;97650.00;;;10.47;63.82
71917;BME280;59793;46.506;6.674;2023-04-09T08:35:17;97633.13;;;10.61;62.29
71917;BME280;59793;46.506;6.674;2023-04-09T08:37:42;97650.34;;;11.40;60.45
71917;BME280;59793;46.506;6.674;2023-04-09T08:40:08;97647.38;;;11.42;60.15
71917;BME280;59793;46.506;6.674;2023-04-09T08:42:34;97631.88;;;11.53;59.90
71917;BME280;59793;46.506;6.674;2023-04-09T08:45:04;97621.53;;;11.60;59.08
71917;BME280;59793;46.506;6.674;2023-04-09T08:47:31;97639.03;;;11.28;60.53
71917;BME280;59793;46.506;6.674;2023-04-09T08:49:56;97647.25;;;11.26;60.71
71917;BME280;59793;46.506;6.674;2023-04-09T08:52:31;97610.22;;;11.22;60.34
71917;BME280;59793;46.506;6.674;2023-04-09T08:54:58;97644.31;;;11.28;60.35
71917;BME280;59793;46.506;6.674;2023-04-09T08:57:23;97653.63;;;11.37;60.21
71917;BME280;59793;46.506;6.674;2023-04-09T08:59:48;97650.13;;;11.33;60.02
71917;BME280;59793;46.506;6.674;2023-04-09T09:02:14;97663.53;;;11.28;60.45
71917;BME280;59793;46.506;6.674;2023-04-09T09:04:44;97628.25;;;11.08;61.56
71917;BME280;59793;46.506;6.674;2023-04-09T09:07:10;97658.88;;;11.74;59.15
71917;BME280;59793;46.506;6.674;2023-04-09T09:09:57;97663.84;;;11.88;59.33
71917;BME280;59793;46.506;6.674;2023-04-09T09:12:49;97661.94;;;12.01;58.31
71917;BME280;59793;46.506;6.674;2023-04-09T09:15:28;97662.94;;;11.96;58.55
71917;BME280;59793;46.506;6.674;2023-04-09T09:17:58;97660.41;;;12.28;57.36
71917;BME280;59793;46.506;6.674;2023-04-09T09:20:25;97661.03;;;12.65;57.22
71917;BME280;59793;46.506;6.674;2023-04-09T09:22:53;97655.59;;;12.17;57.52
71917;BME280;59793;46.506;6.674;2023-04-09T09:25:19;97638.22;;;12.16;58.20
71917;BME280;59793;46.506;6.674;2023-04-09T09:27:49;97635.50;;;12.57;56.32
71917;BME280;59793;46.506;6.674;2023-04-09T09:30:22;97644.03;;;12.22;56.78
71917;BME280;59793;46.506;6.674;2023-04-09T09:33:12;97672.13;;;12.42;57.35
71917;BME280;59793;46.506;6.674;2023-04-09T09:35:49;97654.19;;;12.08;57.91
71917;BME280;59793;46.506;6.674;2023-04-09T09:38:15;97634.81;;;11.63;58.87
71917;BME280;59793;46.506;6.674;2023-04-09T09:40:41;97644.38;;;11.68;58.28
71917;BME280;59793;46.506;6.674;2023-04-09T09:43:07;97624.28;;;11.51;59.49
71917;BME280;59793;46.506;6.674;2023-04-09T09:45:32;97653.78;;;12.06;58.95
71917;BME280;59793;46.506;6.674;2023-04-09T09:47:58;97591.78;;;11.87;57.40
71917;BME280;59793;46.506;6.674;2023-04-09T09:50:23;97642.56;;;12.37;56.94
71917;BME280;59793;46.506;6.674;2023-04-09T09:53:04;97629.91;;;13.06;55.70
71917;BME280;59793;46.506;6.674;2023-04-09T09:55:37;97635.53;;;13.52;53.25
71917;BME280;59793;46.506;6.674;2023-04-09T09:58:18;97638.13;;;13.32;52.89
71917;BME280;59793;46.506;6.674;2023-04-09T10:00:49;97611.84;;;12.32;57.16
71917;BME280;59793;46.506;6.674;2023-04-09T10:03:24;97615.41;;;12.24;55.78
71917;BME280;59793;46.506;6.674;2023-04-09T10:05:51;97631.16;;;12.64;55.58
71917;BME280;59793;46.506;6.674;2023-04-09T10:08:18;97614.47;;;13.24;53.55
71917;BME280;59793;46.506;6.674;2023-04-09T10:10:44;97622.50;;;13.43;53.01
71917;BME280;59793;46.506;6.674;2023-04-09T10:13:33;97629.72;;;12.67;54.77
71917;BME280;59793;46.506;6.674;2023-04-09T10:15:57;97608.03;;;12.02;56.44
71917;BME280;59793;46.506;6.674;2023-04-09T10:18:23;97620.34;;;12.26;55.45
71917;BME280;59793;46.506;6.674;2023-04-09T10:20:55;97623.75;;;12.86;54.29
71917;BME280;59793;46.506;6.674;2023-04-09T10:23:47;97609.75;;;13.49;52.83
71917;BME280;59793;46.506;6.674;2023-04-09T10:26:13;97614.88;;;13.42;51.58
71917;BME280;59793;46.506;6.674;2023-04-09T10:28:39;97605.41;;;13.76;51.05
71917;BME280;59793;46.506;6.674;2023-04-09T10:31:06;97600.28;;;13.67;49.43
71917;BME280;59793;46.506;6.674;2023-04-09T10:33:32;97620.94;;;14.16;49.82
71917;BME280;59793;46.506;6.674;2023-04-09T10:36:04;97612.06;;;14.67;47.89
71917;BME280;59793;46.506;6.674;2023-04-09T10:38:40;97615.03;;;15.11;46.15
71917;BME280;59793;46.506;6.674;2023-04-09T10:41:16;97593.47;;;14.24;46.32
71917;BME280;59793;46.506;6.674;2023-04-09T10:43:47;97610.44;;;13.46;49.83
71917;BME280;59793;46.506;6.674;2023-04-09T10:46:34;97607.41;;;14.02;49.40
71917;BME280;59793;46.506;6.674;2023-04-09T10:49:22;97616.31;;;14.52;47.72
71917;BME280;59793;46.506;6.674;2023-04-09T10:59:55;97604.72;;;14.83;45.95
71917;BME280;59793;46.506;6.674;2023-04-09T11:05:18;97603.91;;;14.56;44.65
71917;BME280;59793;46.506;6.674;2023-04-09T11:07:47;97596.50;;;14.46;46.07
71917;BME280;59793;46.506;6.674;2023-04-09T11:10:14;97560.38;;;14.57;45.38
71917;BME280;59793;46.506;6.674;2023-04-09T11:12:39;97588.22;;;14.93;45.31
71917;BME280;59793;46.506;6.674;2023-04-09T11:15:05;97572.66;;;15.18;44.88
71917;BME280;59793;46.506;6.674;2023-04-09T11:17:39;97568.22;;;14.99;45.14
71917;BME280;59793;46.506;6.674;2023-04-09T11:20:05;97569.19;;;15.14;43.65
71917;BME280;59793;46.506;6.674;2023-04-09T11:22:31;97555.19;;;15.44;42.95
71917;BME280;59793;46.506;6.674;2023-04-09T11:24:57;97534.28;;;15.12;43.50
71917;BME280;59793;46.506;6.674;2023-04-09T11:27:22;97524.41;;;15.09;44.44
71917;BME280;59793;46.506;6.674;2023-04-09T11:29:48;97550.72;;;15.21;43.84
71917;BME280;59793;46.506;6.674;2023-04-09T11:32:13;97573.78;;;15.44;43.26
71917;BME280;59793;46.506;6.674;2023-04-09T11:34:38;97569.00;;;15.26;44.05
71917;BME280;59793;46.506;6.674;2023-04-09T11:37:04;97567.75;;;15.47;44.59
71917;BME280;59793;46.506;6.674;2023-04-09T11:39:36;97548.63;;;15.34;43.87
71917;BME280;59793;46.506;6.674;2023-04-09T11:42:01;97565.66;;;15.33;44.39
71917;BME280;59793;46.506;6.674;2023-04-09T11:44:27;97569.41;;;15.28;45.07
71917;BME280;59793;46.506;6.674;2023-04-09T11:46:52;97561.66;;;15.16;45.06
71917;BME280;59793;46.506;6.674;2023-04-09T11:49:18;97563.38;;;15.32;46.00
71917;BME280;59793;46.506;6.674;2023-04-09T11:51:44;97561.63;;;15.69;42.34
71917;BME280;59793;46.506;6.674;2023-04-09T11:54:11;97559.28;;;15.98;42.64
71917;BME280;59793;46.506;6.674;2023-04-09T11:56:36;97533.28;;;16.18;41.63
71917;BME280;59793;46.506;6.674;2023-04-09T11:59:02;97551.88;;;16.55;41.31
71917;BME280;59793;46.506;6.674;2023-04-09T12:01:31;97521.03;;;16.47;40.99
71917;BME280;59793;46.506;6.674;2023-04-09T12:03:57;97540.03;;;16.49;41.55
71917;BME280;59793;46.506;6.674;2023-04-09T12:06:23;97551.34;;;16.80;42.42
71917;BME280;59793;46.506;6.674;2023-04-09T12:08:53;97547.22;;;16.89;40.61
71917;BME280;59793;46.506;6.674;2023-04-09T12:11:18;97544.88;;;16.81;40.90
71917;BME280;59793;46.506;6.674;2023-04-09T12:13:45;97524.16;;;16.60;41.42
71917;BME280;59793;46.506;6.674;2023-04-09T12:16:13;97534.78;;;16.60;41.03
71917;BME280;59793;46.506;6.674;2023-04-09T12:18:43;97520.28;;;16.50;40.26
71917;BME280;59793;46.506;6.674;2023-04-09T12:21:08;97513.13;;;16.58;41.01
71917;BME280;59793;46.506;6.674;2023-04-09T12:23:34;97511.50;;;16.46;40.72
71917;BME280;59793;46.506;6.674;2023-04-09T12:25:59;97533.03;;;15.93;42.49
71917;BME280;59793;46.506;6.674;2023-04-09T12:28:26;97521.16;;;16.61;43.60
71917;BME280;59793;46.506;6.674;2023-04-09T12:30:52;97526.00;;;17.00;42.07
71917;BME280;59793;46.506;6.674;2023-04-09T12:33:19;97520.00;;;17.10;41.65
71917;BME280;59793;46.506;6.674;2023-04-09T12:35:44;97528.28;;;16.54;42.98
71917;BME280;59793;46.506;6.674;2023-04-09T12:38:10;97518.16;;;17.22;42.48
71917;BME280;59793;46.506;6.674;2023-04-09T12:40:36;97505.13;;;17.09;41.98
71917;BME280;59793;46.506;6.674;2023-04-09T12:43:01;97529.50;;;17.11;42.90
71917;BME280;59793;46.506;6.674;2023-04-09T12:45:28;97528.91;;;17.43;43.42
71917;BME280;59793;46.506;6.674;2023-04-09T12:47:53;97513.19;;;17.24;42.21
71917;BME280;59793;46.506;6.674;2023-04-09T12:50:19;97510.94;;;17.29;38.73
71917;BME280;59793;46.506;6.674;2023-04-09T12:52:45;97516.88;;;17.01;40.49
71917;BME280;59793;46.506;6.674;2023-04-09T12:55:11;97518.84;;;17.11;40.89
71917;BME280;59793;46.506;6.674;2023-04-09T12:57:37;97509.19;;;16.89;39.66
71917;BME280;59793;46.506;6.674;2023-04-09T13:00:04;97510.28;;;16.81;40.25
71917;BME280;59793;46.506;6.674;2023-04-09T13:02:30;97479.69;;;16.60;40.39
71917;BME280;59793;46.506;6.674;2023-04-09T13:04:55;97488.53;;;16.71;40.90
71917;BME280;59793;46.506;6.674;2023-04-09T13:07:21;97502.38;;;16.95;40.47
71917;BME280;59793;46.506;6.674;2023-04-09T13:09:47;97494.75;;;16.86;40.88
71917;BME280;59793;46.506;6.674;2023-04-09T13:12:15;97463.53;;;16.80;40.27
71917;BME280;59793;46.506;6.674;2023-04-09T13:14:41;97472.31;;;16.91;40.64
71917;BME280;59793;46.506;6.674;2023-04-09T13:17:07;97473.50;;;16.97;40.67
71917;BME280;59793;46.506;6.674;2023-04-09T13:19:32;97453.00;;;17.01;40.73
71917;BME280;59793;46.506;6.674;2023-04-09T13:21:57;97470.63;;;17.34;40.14